Latest Weather Observations for Minnipa RS

IDS60801

Issued at 1:35 pm CST Thursday 2 October 2014 (issued every 30 minutes, with the page automatically refreshed every 10 minutes)

About weather observations | Map of weather stations | Latest weather observations for SA | Other Formats
Station Details ID: 018195 Name: MINNIPA PIRSA Lat: -32.84 Lon: 135.15 Height: 165.0 m
Data from the previous 72 hours. | See also: Recent months at Minnipa RS
Date/Time
CST
Temp
°C
App
Temp
°C
Dew
Point
Rel
Hum
%
Delta-T
°C
Wind Press
QNH
hPa
Press
MSL
hPa
Rain
since 9 am
mm
Dir
 
Spd
km/h
Gust
km/h
Spd
kts
Gust
kts
02/01:30pm 23.8 20.3 1.4 23 10.5 ENE 9 19 5 10 1024.5 - 0.0
02/01:00pm 23.9 20.6 2.7 25 10.2 ESE 9 17 5 9 1024.9 - 0.0
02/12:30pm 22.6 18.4 1.6 25 9.9 E 13 20 7 11 1025.4 - 0.0
02/12:00pm 22.1 19.2 2.8 28 9.2 SSE 7 15 4 8 1025.8 1025.5 0.0
02/11:30am 22.3 18.5 3.9 30 9.0 SE 13 20 7 11 1026.2 - 0.0
02/11:00am 21.2 17.8 3.9 32 8.4 ENE 11 19 6 10 1026.7 - 0.0
02/10:30am 20.2 16.7 5.4 38 7.3 E 13 19 7 10 1027.0 - 0.0
02/10:00am 18.1 14.3 5.7 44 6.1 E 15 20 8 11 1027.3 - 0.0
02/09:30am 16.7 12.4 6.8 52 4.9 ESE 19 22 10 12 1027.6 - 0.0
02/09:00am 15.0 10.5 7.1 59 3.9 E 20 24 11 13 1027.8 1027.6 0.0
02/08:30am 13.4 9.1 7.2 66 3.0 ESE 19 26 10 14 1027.8 - 0.0
02/08:00am 11.7 7.5 7.6 76 2.0 ESE 19 22 10 12 1027.8 - 0.0
02/07:30am 9.7 6.5 7.0 83 1.3 ESE 13 19 7 10 1027.8 - 0.0
02/07:00am 7.2 4.5 5.5 89 0.8 SSE 9 15 5 8 1027.9 - 0.0
02/06:30am 8.0 4.7 6.6 91 0.7 E 13 17 7 9 1027.4 - 0.0
02/06:00am 7.5 3.7 6.0 90 0.7 E 15 17 8 9 1027.0 1026.8 0.0
02/05:30am 7.6 3.5 6.1 90 0.7 E 17 20 9 11 1026.8 - 0.0
02/05:00am 7.7 3.9 6.0 89 0.8 E 15 19 8 10 1026.8 - 0.0
02/04:30am 8.3 3.8 6.1 86 1.0 E 19 24 10 13 1026.6 - 0.0
02/04:00am 8.5 4.0 6.1 85 1.1 E 19 26 10 14 1026.4 - 0.0
02/03:30am 8.1 3.5 5.7 85 1.1 E 19 22 10 12 1026.4 - 0.0
02/03:00am 7.8 3.5 5.3 84 1.1 E 17 20 9 11 1026.5 1026.3 0.0
02/02:30am 8.3 3.7 5.4 82 1.3 E 19 22 10 12 1026.6 - 0.0
02/02:00am 8.6 4.4 5.5 81 1.4 E 17 20 9 11 1026.8 - 0.0
02/01:30am 8.6 4.3 5.4 80 1.5 E 17 24 9 13 1027.1 - 0.0
02/01:00am 8.3 4.3 5.1 80 1.4 ESE 15 19 8 10 1027.5 - 0.0
02/12:30am 8.7 4.8 5.3 79 1.5 E 15 20 8 11 1027.6 - 0.0
02/12:00am 8.9 4.6 5.1 77 1.7 ESE 17 20 9 11 1027.7 1027.5 0.0
 
Date/Time
CST
Temp
°C
App
Temp
°C
Dew
Point
Rel
Hum
%
Delta-T
°C
Wind Press
QNH
hPa
Press
MSL
hPa
Rain
since 9 am
mm
Dir
 
Spd
km/h
Gust
km/h
Spd
kts
Gust
kts
01/11:30pm 9.0 5.0 5.0 76 1.8 ESE 15 20 8 11 1027.8 - 0.0
01/11:00pm 9.3 5.6 4.7 73 2.1 ESE 13 17 7 9 1027.9 - 0.0
01/10:30pm 9.1 4.6 4.1 71 2.2 ESE 17 22 9 12 1028.1 - 0.0
01/10:00pm 9.4 5.5 3.6 67 2.5 SE 13 17 7 9 1028.2 - 0.0
01/09:30pm 10.7 6.5 3.7 62 3.1 ESE 15 19 8 10 1028.2 - 0.0
01/09:00pm 11.5 7.3 3.8 59 3.4 SE 15 19 8 10 1028.1 1027.9 0.0
01/08:30pm 12.3 8.1 3.8 56 3.8 SE 15 22 8 12 1027.8 - 0.0
01/08:00pm 12.1 8.6 3.3 55 3.9 SSE 11 15 6 8 1027.5 - 0.0
01/07:30pm 14.2 10.2 3.1 47 5.0 SE 13 17 7 9 1027.1 - 0.0
01/07:00pm 16.0 11.6 2.8 41 6.0 ESE 15 20 8 11 1026.6 - 0.0
01/06:30pm 17.4 12.9 2.2 36 6.9 ESE 15 22 8 12 1026.2 - 0.0
01/06:00pm 19.2 14.3 2.1 32 7.8 ESE 17 24 9 13 1026.0 1025.7 0.0
01/05:30pm 20.4 15.5 2.3 30 8.5 SE 17 24 9 13 1025.9 - 0.0
01/05:00pm 21.1 16.1 1.4 27 9.1 SE 17 24 9 13 1025.7 - 0.0
01/04:30pm 21.5 16.5 1.2 26 9.4 S 17 26 9 14 1025.7 - 0.0
01/04:00pm 21.6 17.3 1.3 26 9.4 SE 13 28 7 15 1025.8 - 0.0
01/03:30pm 21.3 15.7 1.0 26 9.3 SSE 20 30 11 16 1026.1 - 0.0
01/03:00pm 22.0 17.1 2.2 27 9.3 S 17 26 9 14 1026.3 1026.1 0.0
01/02:30pm 21.4 16.1 1.6 27 9.2 SE 19 28 10 15 1026.6 - 0.0
01/02:00pm 20.8 15.8 1.1 27 9.0 SSE 17 24 9 13 1027.0 - 0.0
01/01:30pm 20.2 15.7 2.1 30 8.4 SE 15 28 8 15 1027.5 - 0.0
01/01:00pm 19.6 15.0 1.6 30 8.3 SSE 15 24 8 13 1027.9 - 0.0
01/12:30pm 18.9 13.6 1.9 32 7.8 SE 19 30 10 16 1028.3 - 0.0
01/12:00pm 19.4 14.0 1.4 30 8.1 SE 19 30 10 16 1028.5 1028.3 0.0
01/11:30am 18.0 12.7 3.1 37 7.0 SSE 20 32 11 17 1028.8 - 0.0
01/11:00am 17.6 12.5 3.9 40 6.5 SE 20 30 11 16 1029.1 - 0.0
01/10:30am 17.0 12.1 4.3 43 6.0 SSE 19 30 10 16 1029.4 - 0.0
01/10:00am 16.3 11.1 5.3 48 5.3 SSE 22 32 12 17 1029.5 - 0.0
01/09:30am 15.2 10.0 5.4 52 4.7 SSE 22 32 12 17 1029.5 - 0.0
01/09:00am 14.0 8.8 5.6 57 4.0 SE 22 32 12 17 1029.3 1029.1 0.0
01/08:30am 12.9 7.8 5.8 62 3.4 SE 22 32 12 17 1029.0 - 0.0
01/08:00am 12.0 7.5 5.9 66 2.9 SSE 19 26 10 14 1028.7 - 0.0
01/07:30am 9.7 6.7 6.1 78 1.7 SE 11 15 6 8 1028.4 - 0.0
01/07:00am 7.8 4.7 5.6 86 1.0 SE 11 15 6 8 1028.1 - 0.0
01/06:30am 6.1 2.8 4.4 89 0.7 SE 11 13 6 7 1027.7 - 0.0
01/06:00am 5.8 2.4 4.1 89 0.7 ESE 11 13 6 7 1027.4 1027.2 0.0
01/05:30am 5.7 2.4 4.3 91 0.6 ESE 11 13 6 7 1027.0 - 0.0
01/05:00am 5.8 2.5 4.4 91 0.6 SE 11 13 6 7 1026.6 - 0.0
01/04:30am 6.0 2.7 4.5 90 0.7 SSE 11 13 6 7 1026.3 - 0.0
01/04:00am 6.5 3.3 5.0 90 0.7 SE 11 13 6 7 1026.2 - 0.0
01/03:30am 6.6 3.7 4.9 89 0.7 SE 9 11 5 6 1026.1 - 0.0
01/03:00am 7.3 4.3 5.8 90 0.7 SE 11 13 6 7 1025.9 1025.6 0.0
01/02:30am 7.5 4.8 5.6 88 0.9 SSE 9 11 5 6 1025.8 - 0.0
01/02:00am 7.9 5.2 5.5 85 1.1 SSE 9 13 5 7 1025.8 - 0.0
01/01:30am 8.8 5.5 6.6 86 1.0 S 13 17 7 9 1025.8 - 0.0
01/01:00am 9.2 5.6 6.8 85 1.1 S 15 19 8 10 1025.7 - 0.0
01/12:30am 8.2 4.9 6.2 87 0.9 S 13 15 7 8 1025.6 - 0.0
01/12:00am 7.9 4.8 5.5 85 1.1 SSW 11 13 6 7 1025.6 1025.3 0.0
 
Date/Time
CST
Temp
°C
App
Temp
°C
Dew
Point
Rel
Hum
%
Delta-T
°C
Wind Press
QNH
hPa
Press
MSL
hPa
Rain
since 9 am
mm
Dir
 
Spd
km/h
Gust
km/h
Spd
kts
Gust
kts
30/11:30pm 8.1 5.4 5.7 85 1.1 S 9 11 5 6 1025.5 - 0.0
30/11:00pm 8.5 5.8 5.8 83 1.2 SSW 9 9 5 5 1025.5 - 0.0
30/10:30pm 9.0 6.4 6.3 83 1.3 S 9 11 5 6 1025.4 - 0.0
30/10:00pm 9.4 6.9 6.5 82 1.4 S 9 11 5 6 1025.3 - 0.0
30/09:30pm 9.9 7.8 6.6 80 1.6 SSW 7 11 4 6 1025.3 - 0.0
30/09:00pm 10.4 8.0 6.9 79 1.7 S 9 11 5 6 1025.1 1025.1 0.0
30/08:30pm 11.6 8.6 7.5 76 2.0 S 13 17 7 9 1024.8 - 0.0
30/08:00pm 12.7 9.4 8.0 73 2.3 SSW 15 19 8 10 1024.4 - 0.0
30/07:30pm 13.0 9.7 7.9 71 2.5 SSW 15 19 8 10 1023.9 - 0.0
30/07:00pm 13.5 9.6 7.3 66 3.1 SSW 17 22 9 12 1023.2 - 0.0
30/06:30pm 14.5 10.0 6.8 60 3.8 SSW 20 30 11 16 1022.6 - 0.0
30/06:00pm 15.5 10.0 5.7 52 4.7 SSW 24 35 13 19 1022.2 1022.2 0.0
30/05:30pm 16.8 11.5 8.5 58 4.3 SSW 26 35 14 19 1021.5 - 0.0
30/05:00pm 17.2 11.9 8.6 57 4.5 SW 26 37 14 20 1021.3 - 0.0
30/04:46pm 16.9 10.9 7.0 52 5.0 SW 28 46 15 25 1020.9 - 0.0
30/04:30pm 17.7 11.0 7.4 51 5.2 SSW 32 44 17 24 1020.7 - 0.0
30/04:00pm 18.9 12.2 8.0 49 5.6 SW 33 41 18 22 1020.2 - 0.0
30/03:30pm 19.8 12.7 6.5 42 6.7 SW 33 44 18 24 1019.9 - 0.0
30/03:00pm 20.8 14.3 6.7 40 7.2 SW 30 44 16 24 1019.4 1019.3 0.0
30/02:30pm 21.0 15.1 7.6 42 7.0 SW 28 39 15 21 1019.4 - 0.0
30/02:00pm 21.3 15.4 7.5 41 7.2 SW 28 44 15 24 1019.5 - 0.0
30/01:30pm 21.7 15.8 7.5 40 7.4 SW 28 41 15 22 1019.4 - 0.0
30/01:00pm 21.5 15.4 8.4 43 6.9 SW 30 44 16 24 1019.4 - 0.0
30/12:30pm 21.8 16.1 8.3 42 7.1 SW 28 43 15 23 1019.4 - 0.0
30/12:00pm 21.8 16.1 8.3 42 7.1 W 28 37 15 20 1019.5 1019.4 0.0
30/11:30am 22.0 15.2 7.0 38 7.8 SW 32 44 17 24 1019.2 - 0.0
30/11:00am 23.1 16.7 5.1 31 9.1 WSW 28 43 15 23 1019.0 - 0.0
30/10:30am 21.6 15.2 5.1 34 8.2 WSW 28 41 15 22 1018.7 - 0.0
30/10:00am 21.1 14.3 5.1 35 7.9 W 30 43 16 23 1018.9 - 0.0
30/09:30am 20.4 13.6 5.2 37 7.5 WSW 30 39 16 21 1018.9 - 0.0
30/09:00am 20.1 14.3 4.2 35 7.7 W 24 37 13 20 1018.7 1018.6 0.0
30/08:30am 19.0 14.7 6.8 45 6.2 W 19 28 10 15 1018.4 - 0.0
30/08:00am 17.2 12.8 7.5 53 4.9 W 20 26 11 14 1018.1 - 0.0
30/07:30am 15.8 11.9 7.3 57 4.3 WNW 17 24 9 13 1017.6 - 0.0
30/07:00am 13.6 9.7 5.5 58 3.8 WNW 15 20 8 11 1017.6 - 0.0
30/06:30am 11.8 7.7 4.3 60 3.4 WNW 15 19 8 10 1017.3 - 0.0
30/06:00am 10.9 7.1 3.9 62 3.1 WNW 13 17 7 9 1016.5 1016.5 0.0
30/05:30am 11.1 7.3 4.1 62 3.2 NW 13 15 7 8 1016.1 - 0.0
30/05:00am 11.6 8.3 4.3 61 3.3 NW 11 17 6 9 1016.0 - 0.0
30/04:30am 10.9 7.6 4.6 65 2.9 NNW 11 17 6 9 1015.3 - 0.0
30/04:00am 10.4 6.8 4.8 68 2.5 N 13 15 7 8 1014.7 - 0.0
30/03:30am 11.7 7.7 4.7 62 3.2 N 15 17 8 9 1014.2 - 0.0
30/03:00am 12.8 8.8 4.8 58 3.7 N 15 17 8 9 1014.1 1014.0 0.0
30/02:30am 13.0 9.1 5.2 59 3.7 NNE 15 17 8 9 1014.2 - 0.0
30/02:00am 13.2 8.9 5.1 58 3.8 NE 17 20 9 11 1014.4 - 0.0
30/01:30am 13.4 9.1 5.3 58 3.8 NE 17 20 9 11 1014.5 - 0.0
30/01:00am 13.5 8.9 5.4 58 3.8 NE 19 20 10 11 1014.5 - 0.0
30/12:30am 12.9 8.7 5.6 61 3.4 NE 17 20 9 11 1014.9 - 0.0
30/12:00am 12.6 8.4 5.8 63 3.2 NE 17 20 9 11 1015.1 1015.1 0.0
 
Date/Time
CST
Temp
°C
App
Temp
°C
Dew
Point
Rel
Hum
%
Delta-T
°C
Wind Press
QNH
hPa
Press
MSL
hPa
Rain
since 9 am
mm
Dir
 
Spd
km/h
Gust
km/h
Spd
kts
Gust
kts
29/11:30pm 12.4 8.3 6.0 65 3.0 NE 17 19 9 10 1015.6 - 0.0
29/11:00pm 11.9 8.3 6.6 70 2.5 ENE 15 15 8 8 1016.1 - 0.0
29/10:30pm 10.7 7.8 6.6 76 1.9 ENE 11 13 6 7 1016.3 - 0.0
29/10:00pm 10.4 7.7 5.8 73 2.1 ESE 9 11 5 6 1016.4 - 0.0
29/09:30pm 11.2 8.2 5.9 70 2.5 ESE 11 11 6 6 1016.5 - 0.0
29/09:00pm 10.8 7.6 5.1 68 2.6 SSE 11 13 6 7 1016.4 1016.4 0.0
29/08:30pm 11.8 9.0 5.2 64 3.1 S 9 11 5 6 1016.2 - 0.0
29/08:00pm 12.7 9.9 5.1 60 3.5 SSE 9 11 5 6 1016.0 - 0.0
29/07:30pm 14.3 11.2 5.4 55 4.2 S 11 13 6 7 1015.7 - 0.0
29/07:00pm 16.1 13.0 5.7 50 5.0 S 11 15 6 8 1015.4 - 0.0
29/06:30pm 18.4 14.9 5.3 42 6.4 SSW 13 17 7 9 1015.1 - 0.0
29/06:00pm 20.7 16.4 5.1 36 7.7 SW 17 22 9 12 1014.9 1014.9 0.0
29/05:30pm 22.4 18.0 4.5 31 8.9 WSW 17 26 9 14 1014.6 - 0.0
29/05:00pm 23.9 18.5 2.7 25 10.3 W 20 28 11 15 1014.3 - 0.0
29/04:30pm 24.2 19.8 2.9 25 10.4 WSW 15 24 8 13 1014.1 - 0.0
29/04:00pm 24.8 19.7 2.9 24 10.7 SW 19 28 10 15 1013.9 - 0.0
29/03:30pm 24.7 20.0 3.4 25 10.5 W 17 28 9 15 1014.1 - 0.0
29/03:00pm 24.8 19.7 4.0 26 10.4 W 20 30 11 16 1014.2 1014.1 0.0
29/02:30pm 24.4 19.7 3.1 25 10.4 WSW 17 30 9 16 1014.5 - 0.0
29/02:00pm 24.3 20.4 3.6 26 10.2 W 13 22 7 12 1014.8 - 0.0

Other Formats:

Comma delimited format used in spreadsheet applications
http://www.bom.gov.au/fwo/IDS60801/IDS60801.95662.axf

JavaScript Object Notation format (JSON) in row-major order
http://www.bom.gov.au/fwo/IDS60801/IDS60801.95662.json